Time;durP1;ratioP1;P1;durP2;ratioP2;P2;SDS_P1;SDS_P2;PMS_P1;PMS_P2;Temp;Humidity;BMP_temperature;BMP_pressure;BME280_temperature;BME280_humidity;BME280_pressure;Samples;Min_cycle;Max_cycle;Signal;HPM_P1;HPM_P2
2024/02/04 00:00:24;;;;;;;1.08;0.25;;;8.20;99.90;;;;;;5081425;28;20136;-80
2024/02/04 00:02:50;;;;;;;0.20;0.20;;;8.20;99.90;;;;;;5080186;28;20025;-80
2024/02/04 00:05:15;;;;;;;0.68;0.68;;;8.20;99.90;;;;;;5083584;28;20372;-79
2024/02/04 00:07:41;;;;;;;0.43;0.32;;;8.30;99.90;;;;;;5081821;28;20103;-80
2024/02/04 00:10:07;;;;;;;0.65;0.25;;;8.30;99.90;;;;;;5078860;28;20028;-79
2024/02/04 00:12:32;;;;;;;0.77;0.22;;;8.30;99.90;;;;;;5082684;28;20180;-79
2024/02/04 00:14:58;;;;;;;0.20;0.10;;;8.30;99.90;;;;;;5081383;28;20523;-79
2024/02/04 00:17:29;;;;;;;0.70;0.30;;;8.30;99.90;;;;;;5083996;28;20021;-79
2024/02/04 00:19:56;;;;;;;0.93;0.30;;;8.40;99.90;;;;;;5084342;28;20028;-80
2024/02/04 00:22:22;;;;;;;0.20;0.20;;;8.40;99.90;;;;;;5083553;28;20027;-80
2024/02/04 00:24:47;;;;;;;0.43;0.28;;;8.40;99.90;;;;;;5080632;28;20036;-79
2024/02/04 00:27:13;;;;;;;0.30;0.30;;;8.40;99.90;;;;;;5087405;27;20059;-79
2024/02/04 00:29:38;;;;;;;0.20;0.20;;;8.30;99.90;;;;;;5083502;28;20029;-80
2024/02/04 00:32:04;;;;;;;0.10;0.10;;;8.30;99.90;;;;;;5085200;28;20112;-75
2024/02/04 00:34:30;;;;;;;0.38;0.28;;;8.20;99.90;;;;;;5073794;28;20535;-78
2024/02/04 00:36:55;;;;;;;2.78;0.20;;;8.10;99.90;;;;;;5083574;28;20056;-80
2024/02/04 00:39:21;;;;;;;0.57;0.20;;;8.10;99.90;;;;;;5074055;28;20028;-80
2024/02/04 00:41:47;;;;;;;0.45;0.20;;;8.00;99.90;;;;;;5074025;28;20020;-80
2024/02/04 00:44:12;;;;;;;0.30;0.20;;;7.90;99.90;;;;;;5073694;28;20503;-78
2024/02/04 00:46:38;;;;;;;0.10;0.10;;;7.80;99.90;;;;;;5076361;28;20103;-79
2024/02/04 00:49:03;;;;;;;0.22;0.20;;;7.70;99.90;;;;;;5076567;28;20029;-75
2024/02/04 00:51:29;;;;;;;0.20;0.20;;;7.70;99.90;;;;;;5077151;28;20461;-80
2024/02/04 00:53:55;;;;;;;0.50;0.20;;;7.70;99.90;;;;;;5077116;28;20029;-80
2024/02/04 00:56:20;;;;;;;1.38;0.20;;;7.70;99.90;;;;;;5076439;28;20040;-78
2024/02/04 00:58:46;;;;;;;0.65;0.25;;;7.70;99.90;;;;;;5075575;28;20025;-79
2024/02/04 01:01:12;;;;;;;0.28;0.28;;;7.60;99.90;;;;;;5086318;28;20418;-78
2024/02/04 01:03:38;;;;;;;1.35;0.10;;;7.60;99.90;;;;;;5093490;28;20032;-80
2024/02/04 01:06:03;;;;;;;0.10;0.10;;;7.50;99.90;;;;;;5093802;28;20028;-73
2024/02/04 01:08:29;;;;;;;0.40;0.30;;;7.40;99.90;;;;;;5092825;28;20025;-79
2024/02/04 01:10:55;;;;;;;0.30;0.30;;;7.40;99.90;;;;;;5083737;28;20047;-79
2024/02/04 01:13:20;;;;;;;0.30;0.10;;;7.40;99.90;;;;;;5073005;28;20507;-79
2024/02/04 01:15:46;;;;;;;0.40;0.20;;;7.40;99.90;;;;;;5073980;28;20021;-79
2024/02/04 01:18:12;;;;;;;0.40;0.30;;;7.40;99.90;;;;;;5072875;28;20347;-79
2024/02/04 01:20:37;;;;;;;0.15;0.10;;;7.40;99.90;;;;;;5073186;28;20031;-79
2024/02/04 01:23:03;;;;;;;0.20;0.10;;;7.40;99.90;;;;;;5072490;28;20428;-75
2024/02/04 01:25:28;;;;;;;0.20;0.17;;;7.50;99.90;;;;;;5071290;28;20028;-79
2024/02/04 01:27:54;;;;;;;0.45;0.20;;;7.50;99.90;;;;;;5066177;28;20045;-78
2024/02/04 01:30:20;;;;;;;0.40;0.10;;;7.60;99.90;;;;;;5071295;28;20800;-79
2024/02/04 01:32:46;;;;;;;0.20;0.20;;;7.60;99.90;;;;;;5073277;28;20037;-79
2024/02/04 01:35:11;;;;;;;0.20;0.10;;;7.50;99.90;;;;;;5071900;28;20078;-77
2024/02/04 01:37:37;;;;;;;0.30;0.10;;;7.50;99.90;;;;;;5073162;28;20435;-79
2024/02/04 01:40:05;;;;;;;0.85;0.20;;;7.40;99.90;;;;;;5072245;28;20035;-74
2024/02/04 01:42:31;;;;;;;0.25;0.20;;;7.30;99.90;;;;;;5076085;28;20024;-79
2024/02/04 01:44:56;;;;;;;1.08;0.30;;;7.20;99.90;;;;;;5061679;28;20028;-79
2024/02/04 01:47:22;;;;;;;0.52;0.28;;;7.20;99.90;;;;;;5072266;28;20031;-78
2024/02/04 01:49:48;;;;;;;0.40;0.17;;;7.10;99.90;;;;;;5072608;28;20024;-78
2024/02/04 01:52:14;;;;;;;0.40;0.20;;;7.10;99.90;;;;;;5066514;28;20389;-79
2024/02/04 01:54:42;;;;;;;0.43;0.30;;;7.10;99.90;;;;;;5066409;28;20385;-78
2024/02/04 01:57:10;;;;;;;0.75;0.28;;;7.10;99.90;;;;;;5071355;28;20047;-77
2024/02/04 01:59:39;;;;;;;0.20;0.20;;;7.20;99.90;;;;;;5069358;28;20527;-79
2024/02/04 02:02:06;;;;;;;1.23;0.20;;;7.30;99.90;;;;;;5065294;28;20365;-76
2024/02/04 02:04:31;;;;;;;1.00;0.20;;;7.30;99.90;;;;;;5072180;28;20028;-79
2024/02/04 02:06:59;;;;;;;0.32;0.32;;;7.40;99.90;;;;;;5069797;28;20029;-79
2024/02/04 02:09:26;;;;;;;0.10;0.10;;;7.40;99.90;;;;;;5064995;28;20032;-78
2024/02/04 02:12:10;;;;;;;0.20;0.20;;;7.50;99.90;;;;;;5072090;28;20036;-79
2024/02/04 02:14:40;;;;;;;1.55;0.25;;;7.50;99.90;;;;;;5071851;28;20432;-76
2024/02/04 02:17:17;;;;;;;0.47;0.28;;;7.50;99.90;;;;;;5066869;28;20021;-78
2024/02/04 02:19:50;;;;;;;0.10;0.10;;;7.50;99.90;;;;;;5071789;28;20056;-78
2024/02/04 02:22:39;;;;;;;0.40;0.35;;;7.50;99.90;;;;;;5066913;28;20029;-79
2024/02/04 02:25:07;;;;;;;0.20;0.20;;;7.50;99.90;;;;;;5070888;28;20032;-75
2024/02/04 02:27:33;;;;;;;0.28;0.20;;;7.50;99.90;;;;;;5064626;28;20056;-79
2024/02/04 02:29:58;;;;;;;0.22;0.13;;;7.40;99.90;;;;;;5071716;28;20380;-79
2024/02/04 02:32:25;;;;;;;0.40;0.20;;;7.40;99.90;;;;;;5071509;28;20131;-79
2024/02/04 02:34:51;;;;;;;0.10;0.10;;;7.40;99.90;;;;;;5067502;28;20099;-79
2024/02/04 02:37:43;;;;;;;0.17;0.17;;;7.40;99.90;;;;;;5070972;28;20078;-79
2024/02/04 02:40:23;;;;;;;0.20;0.20;;;7.40;99.90;;;;;;5059709;28;20376;-78
2024/02/04 02:42:51;;;;;;;0.20;0.20;;;7.40;99.90;;;;;;5075385;28;20138;-78
2024/02/04 02:45:19;;;;;;;0.20;0.20;;;7.40;99.90;;;;;;5069775;28;20056;-78
2024/02/04 02:47:46;;;;;;;0.35;0.30;;;7.40;99.90;;;;;;5069629;28;20021;-78
2024/02/04 02:50:12;;;;;;;0.40;0.20;;;7.40;99.90;;;;;;5070772;28;20021;-79
2024/02/04 02:52:38;;;;;;;0.45;0.15;;;7.40;99.90;;;;;;5063989;28;20389;-79
2024/02/04 02:55:04;;;;;;;0.40;0.20;;;7.50;99.90;;;;;;5068337;28;20125;-75
2024/02/04 02:57:30;;;;;;;0.20;0.10;;;7.40;99.90;;;;;;5053548;28;20021;-79
2024/02/04 02:59:55;;;;;;;0.10;0.10;;;7.50;99.90;;;;;;5068275;28;20031;-79
2024/02/04 03:02:21;;;;;;;0.20;0.20;;;7.50;99.90;;;;;;5064812;28;20028;-78
2024/02/04 03:04:46;;;;;;;0.80;0.20;;;7.50;99.90;;;;;;5070834;28;20052;-79
2024/02/04 03:07:12;;;;;;;0.10;0.10;;;7.50;99.90;;;;;;5070370;28;20075;-79
2024/02/04 03:09:37;;;;;;;0.25;0.10;;;7.50;99.90;;;;;;5066348;28;20020;-78
2024/02/04 03:12:03;;;;;;;0.10;0.10;;;7.60;99.90;;;;;;5062562;28;20045;-74
2024/02/04 03:14:30;;;;;;;0.52;0.13;;;7.60;99.90;;;;;;5070969;28;20035;-79
2024/02/04 03:16:56;;;;;;;0.50;0.32;;;7.50;99.90;;;;;;5067793;28;20075;-79
2024/02/04 03:19:21;;;;;;;0.20;0.20;;;7.60;99.90;;;;;;5061302;28;20032;-77
2024/02/04 03:21:48;;;;;;;0.85;0.25;;;7.60;99.90;;;;;;5070142;28;20028;-81
2024/02/04 03:24:13;;;;;;;0.20;0.15;;;7.60;99.90;;;;;;5069923;28;20126;-79
2024/02/04 03:26:39;;;;;;;0.32;0.15;;;7.50;99.90;;;;;;5066894;28;20144;-77
2024/02/04 03:29:04;;;;;;;0.30;0.30;;;7.50;99.90;;;;;;5067371;28;20032;-75
2024/02/04 03:31:31;;;;;;;0.93;0.30;;;7.50;99.90;;;;;;5071126;28;20028;-78
2024/02/04 03:33:56;;;;;;;0.80;0.30;;;7.50;99.90;;;;;;5070940;28;20036;-78
2024/02/04 03:36:24;;;;;;;0.20;0.20;;;7.50;99.90;;;;;;5070058;28;20032;-77
2024/02/04 03:38:53;;;;;;;0.50;0.22;;;7.50;99.90;;;;;;5070706;28;20028;-77
2024/02/04 03:41:18;;;;;;;0.22;0.20;;;7.50;99.90;;;;;;5069672;28;20028;-76
2024/02/04 03:43:44;;;;;;;0.20;0.10;;;7.60;99.90;;;;;;5073594;28;20146;-80
2024/02/04 03:46:16;;;;;;;0.13;0.13;;;7.60;99.90;;;;;;5070084;28;20021;-79
2024/02/04 03:48:42;;;;;;;0.10;0.10;;;7.60;99.90;;;;;;5070217;28;20040;-79
2024/02/04 03:51:08;;;;;;;0.30;0.20;;;7.50;99.90;;;;;;5052079;28;20376;-78
2024/02/04 03:53:34;;;;;;;0.30;0.20;;;7.50;99.90;;;;;;5062989;28;20047;-79
2024/02/04 03:55:59;;;;;;;1.15;0.20;;;7.50;99.90;;;;;;5070662;28;20078;-80
2024/02/04 03:58:29;;;;;;;5.28;0.40;;;7.50;99.90;;;;;;5069750;28;20024;-80
2024/02/04 04:00:58;;;;;;;0.10;0.10;;;7.50;99.90;;;;;;5062045;28;20052;-79
2024/02/04 04:03:24;;;;;;;0.60;0.33;;;7.50;99.90;;;;;;5060167;28;20041;-79
2024/02/04 04:05:50;;;;;;;0.10;0.10;;;7.50;99.90;;;;;;5070795;28;20101;-80
2024/02/04 04:08:17;;;;;;;0.90;0.20;;;7.50;99.90;;;;;;5069748;28;20467;-80
2024/02/04 04:10:43;;;;;;;0.22;0.10;;;7.40;99.90;;;;;;5059389;28;20654;-78
2024/02/04 04:13:09;;;;;;;0.40;0.13;;;7.40;99.90;;;;;;5067630;28;20082;-79
2024/02/04 04:15:34;;;;;;;0.60;0.30;;;7.40;99.90;;;;;;5070259;28;20052;-80
2024/02/04 04:18:00;;;;;;;0.10;0.10;;;7.40;99.90;;;;;;5067108;28;20025;-80
2024/02/04 04:20:25;;;;;;;0.30;0.20;;;7.40;99.90;;;;;;5068272;28;20028;-80
2024/02/04 04:22:51;;;;;;;0.20;0.10;;;7.40;99.90;;;;;;5052636;28;20036;-79
2024/02/04 04:25:17;;;;;;;0.35;0.15;;;7.40;99.90;;;;;;5069267;28;20075;-78
2024/02/04 04:27:43;;;;;;;0.10;0.10;;;7.40;99.90;;;;;;5064390;28;20047;-80
2024/02/04 04:30:09;;;;;;;0.52;0.25;;;7.40;99.90;;;;;;5069016;28;20369;-79
2024/02/04 04:32:35;;;;;;;1.00;0.20;;;7.40;99.90;;;;;;5070774;28;20043;-78
2024/02/04 04:35:01;;;;;;;0.10;0.10;;;7.40;99.90;;;;;;5069569;28;20025;-75
2024/02/04 04:37:26;;;;;;;0.10;0.10;;;7.40;99.90;;;;;;5069391;28;20028;-79
2024/02/04 04:39:52;;;;;;;0.10;0.10;;;7.40;99.90;;;;;;5070153;28;20496;-79
2024/02/04 04:42:18;;;;;;;1.00;0.30;;;7.40;99.90;;;;;;5072420;28;20029;-80
2024/02/04 04:44:43;;;;;;;0.13;0.10;;;7.40;99.90;;;;;;5070067;28;20099;-79
2024/02/04 04:47:09;;;;;;;0.35;0.35;;;7.40;99.90;;;;;;5069453;28;20066;-79
2024/02/04 04:49:34;;;;;;;0.60;0.30;;;7.40;99.90;;;;;;5065952;28;20021;-80
2024/02/04 04:52:00;;;;;;;1.85;0.60;;;7.40;99.90;;;;;;5058672;28;20033;-81
2024/02/04 04:54:27;;;;;;;1.02;0.38;;;7.40;99.90;;;;;;5053263;28;20029;-80
2024/02/04 04:56:53;;;;;;;1.73;0.77;;;7.40;99.90;;;;;;5070446;28;20111;-80
2024/02/04 04:59:19;;;;;;;2.55;0.60;;;7.50;99.90;;;;;;5067488;28;20159;-80
2024/02/04 05:01:50;;;;;;;1.05;0.43;;;7.50;99.90;;;;;;5067032;28;20017;-79
2024/02/04 05:04:18;;;;;;;0.82;0.57;;;7.50;99.90;;;;;;5072461;28;20032;-79
2024/02/04 05:06:44;;;;;;;0.55;0.40;;;7.60;99.90;;;;;;5072606;28;20031;-78
2024/02/04 05:09:10;;;;;;;1.05;0.40;;;7.50;99.90;;;;;;5065027;28;20029;-78
2024/02/04 05:11:35;;;;;;;0.10;0.10;;;7.60;99.90;;;;;;5073747;28;20381;-78
2024/02/04 05:14:01;;;;;;;0.55;0.28;;;7.60;99.90;;;;;;5073154;28;20477;-76
2024/02/04 05:16:27;;;;;;;0.47;0.30;;;7.60;99.90;;;;;;5072132;28;20035;-79
2024/02/04 05:18:52;;;;;;;1.88;0.35;;;7.70;99.90;;;;;;5068572;28;20439;-79
2024/02/04 05:21:18;;;;;;;0.57;0.20;;;7.70;99.90;;;;;;5071146;28;20032;-78
2024/02/04 05:23:44;;;;;;;0.32;0.20;;;7.70;99.90;;;;;;5073199;28;20025;-79
2024/02/04 05:26:09;;;;;;;0.35;0.20;;;7.80;99.90;;;;;;5068163;28;20052;-78
2024/02/04 05:28:35;;;;;;;0.50;0.22;;;7.70;99.90;;;;;;5066787;28;20028;-79
2024/02/04 05:31:04;;;;;;;0.40;0.20;;;7.80;99.90;;;;;;5073337;28;20055;-79
2024/02/04 05:33:29;;;;;;;0.47;0.47;;;7.70;99.90;;;;;;5054128;28;20066;-79
2024/02/04 05:35:55;;;;;;;0.40;0.22;;;7.80;99.90;;;;;;5072980;28;20414;-79
2024/02/04 05:38:22;;;;;;;0.40;0.20;;;7.70;99.90;;;;;;5071897;28;20643;-80
2024/02/04 05:40:47;;;;;;;0.13;0.10;;;7.70;99.90;;;;;;5073387;28;20032;-82
2024/02/04 05:43:13;;;;;;;0.45;0.20;;;7.70;99.90;;;;;;5075138;28;20032;-79
2024/02/04 05:45:40;;;;;;;0.08;0.08;;;7.70;99.90;;;;;;5073188;28;20078;-79
2024/02/04 05:48:07;;;;;;;0.65;0.30;;;7.70;99.90;;;;;;5072115;28;20017;-75
2024/02/04 05:50:33;;;;;;;0.10;0.10;;;7.60;99.90;;;;;;5072416;28;20066;-79
2024/02/04 05:52:58;;;;;;;0.35;0.20;;;7.60;99.90;;;;;;5069273;28;20033;-80
2024/02/04 05:55:24;;;;;;;0.30;0.20;;;7.60;99.90;;;;;;5070986;28;20580;-79
2024/02/04 05:57:49;;;;;;;0.38;0.20;;;7.60;99.90;;;;;;5073052;28;20027;-80
2024/02/04 06:00:15;;;;;;;0.17;0.15;;;7.60;99.90;;;;;;5068823;28;20104;-78
2024/02/04 06:02:42;;;;;;;0.50;0.15;;;7.60;99.90;;;;;;5067009;28;20040;-78
2024/02/04 06:05:12;;;;;;;0.20;0.20;;;7.60;99.90;;;;;;5071377;28;20111;-78
2024/02/04 06:07:38;;;;;;;0.55;0.20;;;7.50;99.90;;;;;;5072911;28;20048;-80
2024/02/04 06:10:03;;;;;;;1.80;0.30;;;7.50;99.90;;;;;;5065670;28;20458;-76
2024/02/04 06:12:30;;;;;;;0.60;0.38;;;7.50;99.90;;;;;;5072193;28;20150;-79
2024/02/04 06:14:55;;;;;;;1.05;0.30;;;7.50;99.90;;;;;;5068608;28;20029;-79
2024/02/04 06:17:21;;;;;;;0.60;0.30;;;7.40;99.90;;;;;;5067746;28;20488;-77
2024/02/04 06:19:46;;;;;;;0.20;0.10;;;7.40;99.90;;;;;;5068946;28;20110;-78
2024/02/04 06:22:14;;;;;;;0.28;0.10;;;7.50;99.90;;;;;;5068244;28;20028;-77
2024/02/04 06:24:40;;;;;;;0.20;0.20;;;7.40;99.90;;;;;;5064074;28;20052;-78
2024/02/04 06:27:07;;;;;;;0.10;0.10;;;7.50;99.90;;;;;;5069655;28;20369;-76
2024/02/04 06:29:33;;;;;;;0.30;0.10;;;7.50;99.90;;;;;;5070422;28;20035;-80
2024/02/04 06:31:59;;;;;;;0.10;0.10;;;7.50;99.90;;;;;;5068243;28;20119;-77
2024/02/04 06:34:24;;;;;;;0.35;0.20;;;7.50;99.90;;;;;;5067848;28;20028;-78
2024/02/04 06:36:50;;;;;;;0.20;0.20;;;7.50;99.90;;;;;;5071471;28;20028;-77
2024/02/04 06:39:16;;;;;;;0.10;0.10;;;7.50;99.90;;;;;;5067947;28;20473;-77
2024/02/04 06:41:42;;;;;;;0.22;0.20;;;7.50;99.90;;;;;;5068533;28;20052;-78
2024/02/04 06:44:08;;;;;;;0.70;0.30;;;7.50;99.90;;;;;;5070077;28;20048;-77
2024/02/04 06:46:33;;;;;;;0.10;0.10;;;7.50;99.90;;;;;;5058872;28;20070;-78
2024/02/04 06:48:59;;;;;;;0.20;0.10;;;7.50;99.90;;;;;;5061708;28;20029;-78
2024/02/04 06:51:25;;;;;;;0.32;0.10;;;7.50;99.90;;;;;;5069678;28;20028;-77
2024/02/04 06:53:50;;;;;;;0.30;0.10;;;7.50;99.90;;;;;;5070089;28;20386;-78
2024/02/04 06:56:16;;;;;;;0.05;0.05;;;7.50;99.90;;;;;;5069891;28;20032;-78
2024/02/04 06:58:43;;;;;;;0.55;0.15;;;7.50;99.90;;;;;;5067837;28;20094;-79
2024/02/04 07:01:09;;;;;;;0.10;0.10;;;7.50;99.90;;;;;;5065656;28;20382;-75
2024/02/04 07:03:34;;;;;;;0.10;0.10;;;7.40;99.90;;;;;;5061556;28;20381;-76
2024/02/04 07:06:00;;;;;;;0.38;0.20;;;7.40;99.90;;;;;;5070798;28;20028;-76
2024/02/04 07:08:26;;;;;;;0.60;0.30;;;7.40;99.90;;;;;;5047943;28;20743;-75
2024/02/04 07:10:52;;;;;;;0.20;0.15;;;7.40;99.90;;;;;;5071014;28;20036;-84
2024/02/04 07:13:18;;;;;;;0.52;0.20;;;7.40;99.90;;;;;;5069447;28;20120;-76
2024/02/04 07:15:44;;;;;;;1.08;0.30;;;7.30;99.90;;;;;;5069491;28;20028;-78
2024/02/04 07:18:09;;;;;;;0.55;0.20;;;7.30;99.90;;;;;;5068736;28;20522;-76
2024/02/04 07:20:35;;;;;;;0.30;0.10;;;7.30;99.90;;;;;;5065259;28;20112;-75
2024/02/04 07:23:01;;;;;;;1.25;0.20;;;7.30;99.90;;;;;;5065003;28;20055;-73
2024/02/04 07:25:27;;;;;;;0.20;0.10;;;7.30;99.90;;;;;;5068515;28;20021;-75
2024/02/04 07:27:53;;;;;;;0.55;0.40;;;7.20;99.90;;;;;;5052315;28;20409;-74
2024/02/04 07:30:20;;;;;;;0.40;0.20;;;7.20;99.90;;;;;;5068288;28;20028;-76
2024/02/04 07:32:46;;;;;;;0.65;0.30;;;7.10;99.90;;;;;;5069178;28;20123;-75
2024/02/04 07:35:12;;;;;;;1.70;0.32;;;7.20;99.90;;;;;;5064678;28;20107;-75
2024/02/04 07:37:38;;;;;;;2.67;0.30;;;7.20;99.90;;;;;;5064220;28;20044;-74
2024/02/04 07:40:07;;;;;;;1.52;0.30;;;7.10;99.90;;;;;;5057426;28;20115;-73
2024/02/04 07:42:33;;;;;;;0.53;0.30;;;7.20;99.90;;;;;;5074148;28;20081;-74
2024/02/04 07:44:59;;;;;;;1.38;0.32;;;7.20;99.90;;;;;;5069076;28;20032;-74
2024/02/04 07:47:24;;;;;;;0.65;0.20;;;7.20;99.90;;;;;;5068416;28;20604;-74
2024/02/04 07:49:50;;;;;;;0.55;0.30;;;7.20;99.90;;;;;;5069071;28;20658;-74
2024/02/04 07:52:16;;;;;;;0.60;0.40;;;7.30;99.90;;;;;;5068934;28;20036;-75
2024/02/04 07:54:43;;;;;;;1.10;0.20;;;7.40;99.90;;;;;;5068326;28;20036;-73
2024/02/04 07:57:12;;;;;;;0.40;0.20;;;7.50;99.90;;;;;;5075027;28;20393;-75
2024/02/04 07:59:37;;;;;;;0.90;0.40;;;7.60;99.90;;;;;;5067928;28;20029;-73
2024/02/04 08:02:03;;;;;;;0.57;0.40;;;7.70;99.90;;;;;;5052758;28;20095;-74
2024/02/04 08:04:29;;;;;;;0.40;0.35;;;7.70;99.90;;;;;;5065483;28;20029;-74
2024/02/04 08:06:54;;;;;;;0.60;0.50;;;7.80;99.90;;;;;;5067154;28;20036;-73
2024/02/04 08:09:20;;;;;;;1.67;0.30;;;7.90;99.90;;;;;;5069989;28;20029;-73
2024/02/04 08:11:46;;;;;;;1.60;0.30;;;7.90;99.90;;;;;;5080273;28;20020;-75
2024/02/04 08:14:13;;;;;;;0.65;0.40;;;7.90;99.90;;;;;;5064208;28;20024;-79
2024/02/04 08:16:39;;;;;;;0.95;0.50;;;8.00;99.90;;;;;;5060804;28;20056;-79
2024/02/04 08:19:06;;;;;;;1.13;0.35;;;8.00;99.90;;;;;;5068253;28;20059;-73
2024/02/04 08:21:32;;;;;;;0.35;0.30;;;8.00;99.90;;;;;;5068410;28;20078;-81
2024/02/04 08:23:58;;;;;;;0.70;0.60;;;8.00;99.90;;;;;;5070173;28;20021;-80
2024/02/04 08:26:24;;;;;;;0.85;0.50;;;8.00;99.90;;;;;;5071140;28;20185;-80
2024/02/04 08:28:50;;;;;;;0.60;0.60;;;8.10;99.90;;;;;;5078737;28;20024;-77
2024/02/04 08:31:16;;;;;;;1.33;0.40;;;8.20;99.90;;;;;;5078348;28;20457;-79
2024/02/04 08:33:41;;;;;;;1.20;0.45;;;8.20;99.90;;;;;;5082875;28;20123;-76
2024/02/04 08:36:10;;;;;;;0.43;0.30;;;8.40;99.90;;;;;;5077166;28;20099;-78
2024/02/04 08:38:36;;;;;;;0.50;0.30;;;8.50;99.90;;;;;;5063999;28;20021;-78
2024/02/04 08:41:02;;;;;;;0.70;0.45;;;8.60;99.90;;;;;;5069419;28;20481;-75
2024/02/04 08:43:27;;;;;;;0.80;0.60;;;8.70;99.90;;;;;;5061230;28;20028;-76
2024/02/04 08:45:53;;;;;;;0.30;0.30;;;8.70;99.90;;;;;;5064263;28;20021;-76
2024/02/04 08:48:19;;;;;;;0.40;0.40;;;8.80;99.90;;;;;;5073037;28;20472;-78
2024/02/04 08:50:44;;;;;;;0.40;0.28;;;8.80;99.90;;;;;;5074721;28;20020;-78
2024/02/04 08:53:10;;;;;;;1.83;0.40;;;8.90;99.90;;;;;;5073156;28;20066;-74
2024/02/04 08:55:35;;;;;;;0.65;0.30;;;8.90;99.90;;;;;;5055774;28;20027;-76
2024/02/04 08:58:01;;;;;;;0.47;0.38;;;9.00;99.90;;;;;;5074716;28;20041;-73
2024/02/04 09:00:27;;;;;;;1.13;0.60;;;9.10;99.90;;;;;;5072578;28;20020;-74
2024/02/04 09:02:52;;;;;;;0.60;0.60;;;9.10;99.90;;;;;;5066835;28;20048;-76
2024/02/04 09:05:19;;;;;;;0.40;0.30;;;9.20;99.90;;;;;;5053770;28;20060;-75
2024/02/04 09:07:45;;;;;;;0.50;0.40;;;9.20;99.90;;;;;;5073785;28;20024;-72
2024/02/04 09:10:11;;;;;;;1.60;0.60;;;9.20;99.90;;;;;;5072276;28;20094;-73
2024/02/04 09:12:36;;;;;;;0.40;0.35;;;9.30;99.90;;;;;;5069796;28;20112;-75
2024/02/04 09:15:04;;;;;;;1.15;0.90;;;9.40;99.90;;;;;;5072729;28;20048;-72
2024/02/04 09:17:31;;;;;;;1.17;0.95;;;9.50;99.90;;;;;;5072621;28;20016;-75
2024/02/04 09:19:57;;;;;;;1.65;0.47;;;9.50;99.90;;;;;;5070380;28;20017;-72
2024/02/04 09:22:23;;;;;;;0.55;0.30;;;9.50;99.90;;;;;;5066109;28;20032;-72
2024/02/04 09:24:48;;;;;;;0.50;0.40;;;9.50;99.90;;;;;;5072628;28;20063;-73
2024/02/04 09:27:14;;;;;;;0.50;0.35;;;9.50;99.90;;;;;;5072098;28;20106;-77
2024/02/04 09:29:40;;;;;;;0.30;0.28;;;9.60;99.90;;;;;;5044921;28;20537;-76
2024/02/04 09:32:05;;;;;;;0.52;0.40;;;9.60;99.90;;;;;;5072387;28;20037;-73
2024/02/04 09:34:31;;;;;;;0.25;0.20;;;9.60;99.90;;;;;;5072729;28;20089;-79
2024/02/04 09:36:57;;;;;;;0.88;0.20;;;9.60;99.90;;;;;;5072857;28;20429;-76
2024/02/04 09:39:22;;;;;;;0.82;0.50;;;9.70;99.90;;;;;;5063953;28;20020;-76
2024/02/04 09:41:48;;;;;;;1.35;0.30;;;9.70;99.90;;;;;;5070502;28;20023;-76
2024/02/04 09:44:14;;;;;;;0.38;0.38;;;9.80;99.90;;;;;;5062936;28;20108;-75
2024/02/04 09:46:40;;;;;;;0.90;0.35;;;10.00;99.90;;;;;;5071876;28;20553;-77
2024/02/04 09:49:08;;;;;;;0.13;0.13;;;10.10;99.90;;;;;;5072331;28;20123;-78
2024/02/04 09:51:34;;;;;;;0.47;0.10;;;10.30;99.90;;;;;;5072747;28;20066;-74
2024/02/04 09:54:06;;;;;;;0.10;0.10;;;10.50;99.90;;;;;;5070396;28;20488;-73
2024/02/04 09:56:33;;;;;;;0.00;0.00;;;10.70;99.90;;;;;;5067394;28;20020;-73
2024/02/04 09:58:58;;;;;;;1.17;0.70;;;10.70;99.90;;;;;;5073840;28;20103;-72
2024/02/04 10:01:26;;;;;;;0.38;0.30;;;10.70;99.90;;;;;;5068857;28;20159;-75
2024/02/04 10:03:52;;;;;;;0.20;0.20;;;10.70;99.90;;;;;;5072612;28;20024;-75
2024/02/04 10:06:17;;;;;;;0.30;0.30;;;10.80;99.90;;;;;;5064648;28;20024;-73
2024/02/04 10:08:43;;;;;;;1.55;0.30;;;10.80;99.90;;;;;;5072407;28;20033;-78
2024/02/04 10:11:09;;;;;;;0.30;0.20;;;10.90;99.90;;;;;;5072327;28;20074;-75
2024/02/04 10:13:45;;;;;;;0.20;0.20;;;10.90;99.90;;;;;;5066118;28;20036;-76
2024/02/04 10:16:12;;;;;;;2.08;0.38;;;10.90;99.90;;;;;;5085292;28;20023;-73
2024/02/04 10:18:37;;;;;;;0.13;0.10;;;11.00;99.90;;;;;;5091210;28;20025;-76
2024/02/04 10:21:03;;;;;;;0.30;0.20;;;11.20;99.90;;;;;;5084028;28;20033;-76
2024/02/04 10:23:28;;;;;;;0.38;0.20;;;11.40;99.90;;;;;;5092817;28;20039;-77
2024/02/04 10:25:59;;;;;;;0.13;0.13;;;11.50;99.90;;;;;;5084845;28;20020;-78
2024/02/04 10:28:25;;;;;;;0.63;0.43;;;11.60;99.90;;;;;;5078699;28;20040;-77
2024/02/04 10:30:51;;;;;;;0.47;0.32;;;11.60;99.90;;;;;;5068861;28;20422;-72
2024/02/04 10:33:16;;;;;;;0.63;0.40;;;11.70;99.90;;;;;;5073134;28;20040;-78
2024/02/04 10:35:43;;;;;;;0.32;0.17;;;11.70;99.90;;;;;;5074889;28;20458;-74
2024/02/04 10:38:10;;;;;;;2.05;0.30;;;11.80;99.90;;;;;;5070209;28;20078;-75
2024/02/04 10:40:35;;;;;;;0.17;0.17;;;12.00;99.90;;;;;;5064547;28;20426;-74
2024/02/04 10:43:07;;;;;;;0.20;0.17;;;12.10;99.90;;;;;;5058490;28;20060;-79
2024/02/04 10:45:34;;;;;;;0.30;0.15;;;12.10;99.90;;;;;;5058417;28;20060;-76
2024/02/04 10:48:03;;;;;;;0.85;0.20;;;12.20;99.90;;;;;;5066079;28;20035;-75
2024/02/04 10:50:30;;;;;;;0.22;0.20;;;12.20;99.90;;;;;;5071774;28;20016;-75
2024/02/04 10:53:02;;;;;;;0.30;0.20;;;12.40;99.90;;;;;;5071623;28;20031;-74
2024/02/04 10:55:30;;;;;;;0.30;0.25;;;12.60;99.90;;;;;;5066100;28;20496;-77
2024/02/04 10:57:56;;;;;;;0.10;0.10;;;12.90;99.90;;;;;;5064454;28;20025;-76
2024/02/04 11:00:22;;;;;;;0.10;0.10;;;13.10;99.90;;;;;;5062916;28;20502;-76
2024/02/04 11:02:51;;;;;;;0.35;0.10;;;13.30;99.90;;;;;;5069109;28;20115;-73
2024/02/04 11:05:17;;;;;;;0.13;0.13;;;13.30;99.90;;;;;;5062676;28;20024;-74
2024/02/04 11:07:44;;;;;;;1.60;0.10;;;13.20;99.90;;;;;;5071468;28;20059;-75
2024/02/04 11:10:11;;;;;;;0.20;0.20;;;13.00;99.90;;;;;;5070331;28;20039;-77
2024/02/04 11:12:40;;;;;;;0.20;0.20;;;13.00;99.90;;;;;;5067666;28;20040;-76
2024/02/04 11:15:10;;;;;;;0.15;0.15;;;13.00;99.90;;;;;;5069299;28;20033;-80
2024/02/04 11:17:57;;;;;;;0.57;0.38;;;13.00;99.90;;;;;;5070757;28;20035;-74
2024/02/04 11:20:56;;;;;;;0.20;0.20;;;13.00;99.90;;;;;;5069042;28;20029;-74
2024/02/04 11:23:40;;;;;;;0.40;0.10;;;13.00;99.90;;;;;;5050510;28;20029;-76
2024/02/04 11:26:06;;;;;;;0.30;0.30;;;13.20;99.90;;;;;;5070803;28;20492;-78
2024/02/04 11:28:33;;;;;;;1.95;0.20;;;13.60;99.90;;;;;;5076697;28;20034;-77
2024/02/04 11:30:58;;;;;;;0.22;0.10;;;13.90;99.90;;;;;;5071515;28;20016;-75
2024/02/04 11:33:24;;;;;;;0.10;0.10;;;14.20;99.90;;;;;;5033030;28;20040;-74
2024/02/04 11:36:00;;;;;;;0.20;0.10;;;14.30;99.90;;;;;;5061585;28;20429;-79
2024/02/04 11:38:36;;;;;;;0.40;0.20;;;14.20;99.90;;;;;;5069232;28;20191;-79
2024/02/04 11:41:05;;;;;;;0.98;0.10;;;14.00;99.90;;;;;;5051728;28;20111;-74
2024/02/04 11:43:35;;;;;;;0.65;0.30;;;13.90;99.90;;;;;;5080554;28;20521;-75
2024/02/04 11:46:06;;;;;;;0.30;0.10;;;13.80;99.90;;;;;;5071088;28;20067;-76
2024/02/04 11:48:33;;;;;;;0.20;0.20;;;13.60;99.90;;;;;;5064842;28;20039;-78
2024/02/04 11:51:04;;;;;;;0.20;0.20;;;13.40;99.90;;;;;;5065066;28;20028;-78
2024/02/04 11:53:32;;;;;;;0.10;0.10;;;13.40;99.90;;;;;;5062405;28;20120;-79
2024/02/04 11:56:00;;;;;;;0.45;0.10;;;13.30;99.90;;;;;;5066303;28;20099;-77
2024/02/04 11:58:29;;;;;;;0.52;0.30;;;13.30;99.90;;;;;;5066260;28;20032;-75
2024/02/04 12:00:57;;;;;;;0.50;0.30;;;13.40;99.90;;;;;;5063866;28;20075;-77
2024/02/04 12:03:30;;;;;;;0.77;0.40;;;13.30;99.90;;;;;;5061104;28;20214;-76
2024/02/04 12:05:57;;;;;;;1.13;0.60;;;13.20;99.90;;;;;;5070833;28;20075;-79
2024/02/04 12:08:23;;;;;;;0.55;0.35;;;13.10;99.90;;;;;;5069981;28;20039;-77
2024/02/04 12:10:50;;;;;;;0.28;0.17;;;13.00;99.90;;;;;;5074549;28;20036;-72
2024/02/04 12:13:15;;;;;;;0.60;0.35;;;12.90;99.90;;;;;;5065752;28;20382;-72
2024/02/04 12:15:41;;;;;;;0.60;0.45;;;12.80;99.90;;;;;;5074654;28;20039;-73
2024/02/04 12:18:08;;;;;;;0.30;0.30;;;12.80;99.90;;;;;;5073221;28;20406;-74
2024/02/04 12:20:34;;;;;;;0.40;0.30;;;12.70;99.90;;;;;;5070675;28;20037;-73
2024/02/04 12:23:02;;;;;;;0.40;0.28;;;12.70;99.90;;;;;;5071545;28;20035;-72
2024/02/04 12:25:29;;;;;;;0.70;0.40;;;12.70;99.90;;;;;;5064752;28;20032;-72
2024/02/04 12:27:55;;;;;;;2.55;0.30;;;12.60;99.90;;;;;;5074100;28;20044;-72
2024/02/04 12:30:21;;;;;;;0.55;0.30;;;12.60;99.90;;;;;;5075942;28;20028;-72
2024/02/04 12:32:59;;;;;;;0.80;0.38;;;12.50;99.90;;;;;;5074969;28;20035;-84
2024/02/04 12:35:26;;;;;;;0.70;0.25;;;12.40;99.90;;;;;;5065625;28;20097;-75
2024/02/04 12:37:57;;;;;;;0.45;0.10;;;12.40;99.90;;;;;;5073580;28;20021;-77
2024/02/04 12:40:23;;;;;;;0.55;0.20;;;12.40;99.90;;;;;;5071864;28;20176;-76
2024/02/04 12:42:57;;;;;;;1.15;0.50;;;12.40;99.90;;;;;;5063120;28;20029;-76
2024/02/04 12:45:24;;;;;;;0.30;0.20;;;12.30;99.90;;;;;;5071664;28;20051;-75
2024/02/04 12:47:53;;;;;;;1.27;0.47;;;12.20;99.90;;;;;;5065512;28;20075;-75
2024/02/04 12:50:20;;;;;;;0.70;0.60;;;12.30;99.90;;;;;;5080693;28;20020;-76
2024/02/04 12:53:01;;;;;;;1.08;0.45;;;12.40;99.90;;;;;;5079257;28;21060;-75